Terminal Aerodrome Forecast
Issued by NWS Chicago, IL

Home | Current Version | Previous Version | Text Only | Print | Product List | Glossary Off
Versions: 1 2 3 4 5 6 7 8 9 10 11 12 13 14 15 16 17 18 19 20 21 22 23 24 25 26

000
FTUS43 KLOT 271720
TAFRFD
TAF
KRFD 271720Z 2718/2818 27008KT P6SM FEW060 SCT250
     FM272000 24009KT P6SM FEW060 SCT250
     FM280100 17006KT P6SM FEW250
     FM281000 17010KT P6SM BKN250
     FM281400 18017G27KT P6SM SCT040 BKN120 OVC180 PROB30 2814/2818
      -SHRA BKN040=

USA.gov is the U.S. government's official web portal to all federal, state and local government web resources and services.